createdAt,value
2023-05-08T00:01:00.244Z,31.50
2023-05-08T00:06:05.785Z,31.90
2023-05-08T00:11:08.937Z,32.20
2023-05-08T00:16:15.794Z,31.90
2023-05-08T00:21:19.076Z,32.20
2023-05-08T00:26:22.596Z,31.80
2023-05-08T00:31:27.459Z,32.00
2023-05-08T00:36:30.646Z,32.20
2023-05-08T00:41:33.794Z,32.10
2023-05-08T00:46:38.780Z,32.00
2023-05-08T00:51:43.374Z,32.20
2023-05-08T00:56:47.112Z,32.00
2023-05-08T01:01:53.119Z,32.20
2023-05-08T01:06:56.341Z,32.50
2023-05-08T01:12:09.872Z,32.10
2023-05-08T01:17:23.501Z,32.60
2023-05-08T01:22:55.076Z,32.70
2023-05-08T01:28:21.339Z,32.50
2023-05-08T01:33:31.754Z,32.70
2023-05-08T01:38:43.905Z,32.60
2023-05-08T01:43:55.216Z,32.60
2023-05-08T01:49:07.464Z,32.50
2023-05-08T01:54:16.525Z,32.60
2023-05-08T01:59:23.737Z,32.40
2023-05-08T02:04:30.114Z,32.40
2023-05-08T02:09:33.673Z,32.50
2023-05-08T02:14:38.921Z,32.10
2023-05-08T02:19:45.781Z,32.40
2023-05-08T02:24:49.550Z,32.50
2023-05-08T02:29:54.505Z,32.50
2023-05-08T02:35:03.655Z,32.40
2023-05-08T02:40:10.343Z,33.20
2023-05-08T02:45:14.189Z,32.70
2023-05-08T02:50:24.654Z,32.60
2023-05-08T02:55:37.361Z,33.30
2023-05-08T03:00:46.261Z,33.30
2023-05-08T03:05:54.824Z,33.20
2023-05-08T03:11:02.337Z,33.40
2023-05-08T03:16:07.517Z,34.40
2023-05-08T03:21:14.156Z,33.60
2023-05-08T03:26:20.333Z,34.00
2023-05-08T03:31:24.332Z,34.00
2023-05-08T03:36:29.055Z,34.00
2023-05-08T03:41:32.627Z,34.00
2023-05-08T03:46:36.895Z,33.90
2023-05-08T03:51:42.316Z,33.90
2023-05-08T03:56:46.097Z,33.90
2023-05-08T04:01:55.557Z,33.90
2023-05-08T04:07:07.595Z,34.30
2023-05-08T04:12:17.982Z,34.90
2023-05-08T04:17:35.826Z,34.80
2023-05-08T04:22:41.925Z,35.00
2023-05-08T04:27:45.755Z,35.00
2023-05-08T04:32:50.243Z,34.60
2023-05-08T04:37:55.279Z,34.70
2023-05-08T04:42:58.567Z,35.10
2023-05-08T04:48:01.810Z,34.70
2023-05-08T04:53:06.311Z,34.80
2023-05-08T04:58:11.440Z,35.30
2023-05-08T05:03:14.658Z,35.10
2023-05-08T05:08:19.326Z,35.30
2023-05-08T05:13:22.712Z,35.50
2023-05-08T05:18:31.804Z,35.20
2023-05-08T05:23:36.354Z,35.40
2023-05-08T05:28:39.589Z,37.00
2023-05-08T05:33:43.494Z,36.20
2023-05-08T05:38:48.099Z,35.40
2023-05-08T05:43:51.306Z,35.60
2023-05-08T05:48:54.434Z,35.30
2023-05-08T05:53:59.308Z,35.40
2023-05-08T05:59:02.581Z,35.40
2023-05-08T06:04:06.184Z,35.00
2023-05-08T06:09:10.763Z,35.00
2023-05-08T06:14:13.833Z,35.10
2023-05-08T06:19:16.970Z,34.60
2023-05-08T06:24:21.456Z,34.70
2023-05-08T06:29:24.544Z,34.80
2023-05-08T06:34:27.691Z,34.80
2023-05-08T06:39:32.166Z,34.80
2023-05-08T14:11:17.999Z,33.00
2023-05-08T14:16:21.206Z,32.40
2023-05-08T14:21:24.366Z,32.60
2023-05-08T14:26:28.906Z,32.40
2023-05-08T14:35:20.866Z,31.90
2023-05-08T14:40:24.740Z,31.60
2023-05-08T14:45:27.963Z,32.00
2023-05-08T14:50:32.497Z,31.80
2023-05-08T14:55:35.951Z,31.10
2023-05-08T15:00:39.749Z,31.10
2023-05-08T15:05:44.759Z,31.40
2023-05-08T15:10:48.010Z,31.30
2023-05-08T15:15:51.289Z,31.80
2023-05-08T15:20:55.914Z,31.80
2023-05-08T15:25:59.042Z,31.10
2023-05-08T15:31:05.117Z,31.20
2023-05-08T15:36:09.934Z,30.30
2023-05-08T15:41:15.436Z,30.70
2023-05-08T15:46:18.925Z,31.10
2023-05-08T15:51:23.532Z,31.10
2023-05-08T15:56:26.584Z,30.90
2023-05-08T16:01:29.714Z,31.10
2023-05-08T16:06:34.312Z,30.60
2023-05-08T16:11:37.504Z,30.40
2023-05-08T16:16:41.256Z,30.50
2023-05-08T16:21:46.844Z,30.50
2023-05-08T16:26:49.915Z,30.10
2023-05-08T16:31:53.219Z,30.50
2023-05-08T16:36:58.496Z,30.50
2023-05-08T16:42:01.893Z,30.40
2023-05-08T16:47:05.317Z,30.50
2023-05-08T16:52:09.976Z,30.40
2023-05-08T16:57:13.073Z,30.30
2023-05-08T17:02:19.057Z,30.60
2023-05-08T17:07:24.568Z,30.40
2023-05-08T17:12:27.772Z,30.40
2023-05-08T17:17:30.854Z,30.60
2023-05-08T17:22:35.430Z,31.30
2023-05-08T17:27:38.627Z,30.30
2023-05-08T17:32:41.743Z,30.50
2023-05-08T17:37:46.286Z,30.30
2023-05-08T17:42:49.453Z,29.70
2023-05-08T17:47:52.756Z,30.00
2023-05-08T17:52:57.540Z,30.00
2023-05-08T17:58:06.287Z,30.00
2023-05-08T18:03:09.655Z,29.90
2023-05-08T18:08:14.356Z,30.10
2023-05-08T18:13:17.676Z,30.00
2023-05-08T18:18:20.940Z,30.30
2023-05-08T18:23:25.502Z,30.40
2023-05-08T18:28:28.846Z,30.30
2023-05-08T18:33:32.084Z,30.50
2023-05-08T18:38:36.940Z,30.40
2023-05-08T18:43:41.375Z,30.20
2023-05-08T18:48:44.971Z,30.30
2023-05-08T18:53:49.520Z,30.50
2023-05-08T18:58:52.661Z,30.50
2023-05-08T19:03:55.875Z,30.50
2023-05-08T19:09:00.483Z,30.80
2023-05-08T19:14:04.055Z,30.80
2023-05-08T19:19:07.248Z,30.60
2023-05-08T19:24:11.837Z,30.60
2023-05-08T19:29:14.952Z,30.80
2023-05-08T19:34:18.308Z,30.70
2023-05-08T19:39:23.099Z,30.50
2023-05-08T19:44:27.382Z,30.80
2023-05-08T19:49:30.542Z,30.80
2023-05-08T19:54:35.301Z,30.90
2023-05-08T19:59:38.495Z,31.20
2023-05-08T20:05:07.867Z,31.20
2023-05-08T20:10:07.309Z,31.30
2023-05-08T20:15:11.825Z,31.50
2023-05-08T20:20:15.455Z,31.50
2023-05-08T20:25:20.416Z,31.50
2023-05-08T20:30:23.924Z,31.70
2023-05-08T20:35:27.318Z,31.60
2023-05-08T20:40:31.956Z,31.60
2023-05-08T20:45:35.118Z,32.00
2023-05-08T20:50:38.325Z,31.70
2023-05-08T20:55:42.830Z,31.60
2023-05-08T21:00:45.913Z,31.90
2023-05-08T21:05:49.008Z,31.90
2023-05-08T21:10:53.786Z,31.90
2023-05-08T21:15:57.112Z,32.00
2023-05-08T21:21:00.212Z,31.90
2023-05-08T21:26:04.692Z,32.00
2023-05-08T21:31:07.970Z,32.10
2023-05-08T21:36:11.185Z,32.00
2023-05-08T21:41:15.926Z,32.10
2023-05-08T21:46:19.064Z,32.40
2023-05-08T21:51:22.268Z,32.40
2023-05-08T21:56:26.814Z,32.30
2023-05-08T22:01:30.115Z,32.50
2023-05-08T22:06:33.538Z,32.20
2023-05-08T22:11:38.199Z,32.30
2023-05-08T22:16:42.402Z,32.60
2023-05-08T22:21:45.579Z,32.40
2023-05-08T22:26:50.189Z,32.40
2023-05-08T22:31:53.410Z,32.80
2023-05-08T22:36:56.700Z,32.60
2023-05-08T22:42:02.142Z,32.70
2023-05-08T22:47:05.740Z,33.00
2023-05-08T22:52:09.238Z,32.80
2023-05-08T22:57:14.814Z,32.80
2023-05-08T23:02:17.967Z,33.00
2023-05-08T23:07:21.246Z,32.80
2023-05-08T23:12:26.062Z,32.70
2023-05-08T23:17:29.413Z,32.90
2023-05-08T23:22:32.567Z,32.80
2023-05-08T23:27:37.030Z,33.20
2023-05-08T23:32:40.357Z,33.50
2023-05-08T23:37:43.490Z,33.40
2023-05-08T23:42:47.987Z,33.40
2023-05-08T23:47:51.128Z,33.30
2023-05-08T23:52:54.370Z,33.20
2023-05-08T23:57:59.272Z,33.40
